createdAt,value
2022-09-14T00:01:08.486Z,428.45
2022-09-14T00:03:40.451Z,425.40
2022-09-14T00:06:12.032Z,433.47
2022-09-14T00:08:39.598Z,431.73
2022-09-14T00:11:13.506Z,433.73
2022-09-14T00:13:42.383Z,433.17
2022-09-14T00:16:22.158Z,444.45
2022-09-14T00:18:53.315Z,455.83
2022-09-14T00:21:22.062Z,452.98
2022-09-14T00:23:49.103Z,459.50
2022-09-14T00:26:17.835Z,413.33
2022-09-14T00:28:46.460Z,445.80
2022-09-14T00:31:15.328Z,448.37
2022-09-14T00:33:43.191Z,417.52
2022-09-14T00:36:13.210Z,423.38
2022-09-14T00:38:40.681Z,438.40
2022-09-14T00:41:10.723Z,428.13
2022-09-14T00:43:56.093Z,434.30
2022-09-14T00:46:23.461Z,439.53
2022-09-14T00:48:52.155Z,446.00
2022-09-14T00:51:21.132Z,453.60
2022-09-14T00:53:48.386Z,420.00
2022-09-14T00:56:15.537Z,441.55
2022-09-14T00:58:46.164Z,428.02
2022-09-14T01:01:13.403Z,427.83
2022-09-14T01:03:40.726Z,441.10
2022-09-14T01:06:57.935Z,459.45
2022-09-14T01:09:27.950Z,462.10
2022-09-14T01:12:04.614Z,429.17
2022-09-14T01:15:00.044Z,431.30
2022-09-14T01:17:30.601Z,457.67
2022-09-14T01:20:05.525Z,448.17
2022-09-14T01:22:38.778Z,448.00
2022-09-14T01:25:32.419Z,450.67
2022-09-14T01:28:02.086Z,443.80
2022-09-14T01:30:32.065Z,460.98
2022-09-14T01:33:06.709Z,453.13
2022-09-14T01:35:47.714Z,443.03
2022-09-14T01:38:20.993Z,445.73
2022-09-14T01:40:49.475Z,451.50
2022-09-14T01:43:19.641Z,446.85
2022-09-14T01:45:49.085Z,464.55
2022-09-14T01:48:21.064Z,442.33
2022-09-14T01:50:51.125Z,449.25
2022-09-14T01:53:22.426Z,441.10
2022-09-14T01:56:03.595Z,443.10
2022-09-14T01:58:44.143Z,436.33
2022-09-14T02:01:20.299Z,432.85
2022-09-14T02:03:50.754Z,445.00
2022-09-14T02:06:18.195Z,361.35
2022-09-14T02:08:45.486Z,384.95
2022-09-14T02:11:12.838Z,327.45
2022-09-14T02:13:40.122Z,342.00
2022-09-14T02:16:06.929Z,354.25
2022-09-14T02:18:33.980Z,374.55
2022-09-14T02:21:11.559Z,327.23
2022-09-14T02:23:39.137Z,313.65
2022-09-14T02:26:06.260Z,322.27
2022-09-14T02:28:34.674Z,333.38
2022-09-14T02:31:08.161Z,321.33
2022-09-14T02:33:56.463Z,322.88
2022-09-14T02:36:23.917Z,315.98
2022-09-14T02:39:02.716Z,319.13
2022-09-14T02:41:51.296Z,334.73
2022-09-14T02:44:58.804Z,331.70
2022-09-14T02:47:55.485Z,404.38
2022-09-14T02:50:34.661Z,456.77
2022-09-14T02:53:11.077Z,466.00
2022-09-14T02:55:46.487Z,446.33
2022-09-14T02:58:14.707Z,486.40
2022-09-14T03:00:44.152Z,492.25
2022-09-14T03:03:12.779Z,481.67
2022-09-14T03:05:40.073Z,498.70
2022-09-14T03:08:07.265Z,469.02
2022-09-14T03:10:35.022Z,490.48
2022-09-14T03:13:03.526Z,480.63
2022-09-14T03:15:30.793Z,498.05
2022-09-14T03:17:58.131Z,491.98
2022-09-14T03:20:26.671Z,499.70
2022-09-14T03:22:54.039Z,492.90
2022-09-14T03:25:22.843Z,467.13
2022-09-14T03:27:51.375Z,487.02
2022-09-14T03:30:19.530Z,481.27
2022-09-14T03:32:46.848Z,518.50
2022-09-14T03:35:15.716Z,513.28
2022-09-14T03:37:43.987Z,511.70
2022-09-14T03:40:19.309Z,470.85
2022-09-14T03:42:49.590Z,494.38
2022-09-14T03:45:17.618Z,483.60
2022-09-14T03:47:44.753Z,503.80
2022-09-14T03:50:12.979Z,418.40
2022-09-14T03:52:40.446Z,382.98
2022-09-14T03:55:09.365Z,342.52
2022-09-14T03:57:37.401Z,351.40
2022-09-14T04:00:06.403Z,338.55
2022-09-14T04:02:38.447Z,357.95
2022-09-14T04:05:05.944Z,356.10
2022-09-14T04:07:33.257Z,359.27
2022-09-14T04:10:00.330Z,369.27
2022-09-14T04:12:27.507Z,363.23
2022-09-14T04:14:54.627Z,367.02
2022-09-14T04:17:25.148Z,346.60
2022-09-14T04:19:52.347Z,341.52
2022-09-14T04:22:19.518Z,342.00
2022-09-14T04:24:47.213Z,336.90
2022-09-14T04:27:14.710Z,372.80
2022-09-14T04:29:42.872Z,490.40
2022-09-14T04:32:09.767Z,480.55
2022-09-14T04:34:36.995Z,508.13
2022-09-14T04:37:04.483Z,511.85
2022-09-14T04:39:31.572Z,496.17
2022-09-14T04:41:58.807Z,544.80
2022-09-14T04:44:25.998Z,506.70
2022-09-14T04:46:53.593Z,550.60
2022-09-14T04:49:21.586Z,529.50
2022-09-14T04:51:49.806Z,545.25
2022-09-14T04:54:17.832Z,422.02
2022-09-14T04:56:44.967Z,423.35
2022-09-14T04:59:12.556Z,587.80
2022-09-14T05:01:45.226Z,454.45
2022-09-14T05:04:12.806Z,459.90
2022-09-14T05:06:41.504Z,481.88
2022-09-14T05:09:14.803Z,484.00
2022-09-14T05:11:42.267Z,491.83
2022-09-14T05:14:11.327Z,501.33
2022-09-14T05:16:39.430Z,477.65
2022-09-14T05:19:09.203Z,472.67
2022-09-14T05:21:37.279Z,480.70
2022-09-14T05:24:08.071Z,512.72
2022-09-14T05:26:35.317Z,495.13
2022-09-14T05:29:03.048Z,493.75
2022-09-14T05:31:31.644Z,483.08
2022-09-14T05:33:59.157Z,476.90
2022-09-14T05:36:27.427Z,487.10
2022-09-14T05:38:54.727Z,458.45
2022-09-14T05:41:21.872Z,452.63
2022-09-14T05:43:48.956Z,477.77
2022-09-14T05:46:17.515Z,485.83
2022-09-14T05:48:45.730Z,477.00
2022-09-14T05:51:15.954Z,466.83
2022-09-14T05:53:57.065Z,475.80
2022-09-14T05:56:26.642Z,484.08
2022-09-14T05:58:54.166Z,470.77
2022-09-14T06:01:22.879Z,480.63
2022-09-14T06:03:50.544Z,486.25
2022-09-14T06:06:19.087Z,483.45
2022-09-14T06:08:47.950Z,486.30
2022-09-14T06:11:17.071Z,476.73
2022-09-14T06:13:44.570Z,458.13
2022-09-14T06:16:13.028Z,469.83
2022-09-14T06:18:41.172Z,490.03
2022-09-14T06:21:09.065Z,489.10
2022-09-14T06:23:36.404Z,484.25
2022-09-14T06:26:04.866Z,481.00
2022-09-14T06:28:32.457Z,469.92
2022-09-14T06:30:59.943Z,478.10
2022-09-14T06:33:27.513Z,468.65
2022-09-14T06:36:02.887Z,494.20
2022-09-14T06:38:30.152Z,408.85
2022-09-14T06:40:59.724Z,397.48
2022-09-14T06:43:28.487Z,355.70
2022-09-14T06:46:03.726Z,479.15
2022-09-14T06:48:32.238Z,496.90
2022-09-14T06:50:59.407Z,497.70
2022-09-14T06:53:26.760Z,491.75
2022-09-14T06:55:53.931Z,469.05
2022-09-14T06:58:21.013Z,482.63
2022-09-14T07:00:48.342Z,514.35
2022-09-14T07:03:15.135Z,530.28
2022-09-14T07:05:42.499Z,548.17
2022-09-14T07:08:12.219Z,549.35
2022-09-14T07:10:40.125Z,556.88
2022-09-14T07:13:07.326Z,584.40
2022-09-14T07:15:34.657Z,484.17
2022-09-14T07:18:01.793Z,418.92
2022-09-14T07:20:29.192Z,553.65
2022-09-14T07:22:56.652Z,486.73
2022-09-14T07:25:23.864Z,521.80
2022-09-14T07:27:51.039Z,514.30
2022-09-14T07:30:18.293Z,537.58
2022-09-14T07:32:45.512Z,546.30
2022-09-14T07:35:12.661Z,509.77
2022-09-14T07:37:39.830Z,545.75
2022-09-14T07:40:07.383Z,526.53
2022-09-14T07:42:34.546Z,552.38
2022-09-14T07:45:01.786Z,587.70
2022-09-14T07:47:28.945Z,600.63
2022-09-14T07:49:56.251Z,580.38
2022-09-14T07:52:23.432Z,579.17
2022-09-14T07:54:51.114Z,581.53
2022-09-14T07:57:18.255Z,585.50
2022-09-14T07:59:45.537Z,619.05
2022-09-14T08:02:12.752Z,574.07
2022-09-14T08:04:39.962Z,587.95
2022-09-14T08:07:07.781Z,616.17
2022-09-14T08:09:35.088Z,609.03
2022-09-14T08:12:03.103Z,637.55
2022-09-14T08:14:31.246Z,643.65
2022-09-14T08:17:00.781Z,627.95
2022-09-14T08:19:27.983Z,701.92
2022-09-14T08:21:55.335Z,694.13
2022-09-14T08:24:23.572Z,714.30
2022-09-14T08:26:50.837Z,698.72
2022-09-14T08:29:18.790Z,699.75
2022-09-14T08:31:47.005Z,566.88
2022-09-14T08:34:14.891Z,757.85
2022-09-14T08:36:43.322Z,799.53
2022-09-14T08:39:11.649Z,700.60
2022-09-14T08:41:45.082Z,745.85
2022-09-14T08:44:12.345Z,772.95
2022-09-14T08:46:41.442Z,775.43
2022-09-14T08:49:31.403Z,685.50
2022-09-14T08:51:59.632Z,656.95
2022-09-14T08:54:26.854Z,663.90
2022-09-14T08:56:59.823Z,640.50
2022-09-14T08:59:32.346Z,642.92
2022-09-14T09:02:02.486Z,642.38
2022-09-14T09:04:36.685Z,650.83
2022-09-14T09:07:12.996Z,658.35
2022-09-14T09:09:46.061Z,628.00
2022-09-14T09:12:35.895Z,619.37
2022-09-14T09:15:14.877Z,594.20
2022-09-14T09:17:46.637Z,620.25
2022-09-14T09:20:35.655Z,615.13
2022-09-14T09:23:09.043Z,596.92
2022-09-14T09:25:45.190Z,587.03
2022-09-14T09:28:13.273Z,598.72
2022-09-14T09:30:41.400Z,607.27
2022-09-14T09:33:20.134Z,604.67
2022-09-14T09:36:14.788Z,600.75
2022-09-14T09:38:42.589Z,543.60
2022-09-14T09:41:15.541Z,551.10
2022-09-14T09:44:02.715Z,552.55
2022-09-14T09:46:35.607Z,553.03
2022-09-14T09:49:04.905Z,573.47
2022-09-14T09:51:33.411Z,546.10
2022-09-14T09:54:07.054Z,517.03
2022-09-14T09:56:36.544Z,508.58
2022-09-14T09:59:20.700Z,509.90
2022-09-14T10:01:47.974Z,519.22
2022-09-14T10:04:17.373Z,535.37
2022-09-14T10:06:47.919Z,502.05
2022-09-14T10:09:16.941Z,519.08
2022-09-14T10:11:46.753Z,498.55
2022-09-14T10:14:31.844Z,518.88
2022-09-14T10:17:15.657Z,485.27
2022-09-14T10:19:47.542Z,481.27
2022-09-14T10:22:17.340Z,499.25
2022-09-14T10:24:54.591Z,496.40
2022-09-14T10:27:48.314Z,486.27
2022-09-14T10:30:23.567Z,478.80
2022-09-14T10:33:00.231Z,503.17
2022-09-14T10:35:33.970Z,476.30
2022-09-14T10:38:01.157Z,481.58
2022-09-14T10:40:33.639Z,497.92
2022-09-14T10:43:09.999Z,471.10
2022-09-14T10:45:45.001Z,480.85
2022-09-14T10:48:34.971Z,503.20
2022-09-14T10:51:22.640Z,508.02
2022-09-14T10:53:55.763Z,682.05
2022-09-14T10:56:52.796Z,669.60
2022-09-14T10:59:41.471Z,584.73
2022-09-14T11:02:21.650Z,605.73
2022-09-14T11:05:10.215Z,602.10
2022-09-14T11:07:49.686Z,601.72
2022-09-14T11:10:35.855Z,494.38
2022-09-14T11:13:02.961Z,525.40
2022-09-14T11:15:38.716Z,498.55
2022-09-14T11:18:26.289Z,514.75
2022-09-14T11:21:02.816Z,492.17
2022-09-14T11:23:40.626Z,518.40
2022-09-14T11:26:14.645Z,511.27
2022-09-14T11:28:52.620Z,479.63
2022-09-14T11:31:25.164Z,524.78
2022-09-14T11:33:55.757Z,502.15
2022-09-14T11:36:25.646Z,548.17
2022-09-14T11:39:06.870Z,515.90
2022-09-14T11:41:38.600Z,496.63
2022-09-14T11:44:32.095Z,493.17
2022-09-14T11:47:08.566Z,475.15
2022-09-14T11:49:50.945Z,496.35
2022-09-14T11:52:20.851Z,484.05
2022-09-14T11:54:49.083Z,494.23
2022-09-14T11:57:36.515Z,474.77
2022-09-14T12:00:33.282Z,490.98
2022-09-14T12:03:13.175Z,423.77
2022-09-14T12:05:43.280Z,420.93
2022-09-14T12:08:31.128Z,431.65
2022-09-14T12:11:02.363Z,436.42
2022-09-14T12:13:29.624Z,498.45
2022-09-14T12:16:07.313Z,502.60
2022-09-14T12:18:39.211Z,461.98
2022-09-14T12:21:12.182Z,503.27
2022-09-14T12:23:39.250Z,492.95
2022-09-14T12:26:06.322Z,504.05
2022-09-14T12:28:37.575Z,521.22
2022-09-14T12:31:08.217Z,467.75
2022-09-14T12:33:35.414Z,408.58
2022-09-14T12:36:22.973Z,482.67
2022-09-14T12:38:50.087Z,461.03
2022-09-14T12:41:20.026Z,478.30
2022-09-14T12:43:54.464Z,489.03
2022-09-14T12:46:22.638Z,484.05
2022-09-14T12:48:54.145Z,389.55
2022-09-14T12:51:32.805Z,375.08
2022-09-14T12:54:03.299Z,392.00
2022-09-14T12:56:33.307Z,370.92
2022-09-14T12:59:07.176Z,387.73
2022-09-14T13:01:52.765Z,387.60
2022-09-14T13:04:27.803Z,368.80
2022-09-14T13:06:56.717Z,372.10
2022-09-14T13:09:25.471Z,396.65
2022-09-14T13:12:01.544Z,386.88
2022-09-14T13:14:32.672Z,360.38
2022-09-14T13:17:01.318Z,366.42
2022-09-14T13:19:30.785Z,342.50
2022-09-14T13:21:59.091Z,342.10
2022-09-14T13:24:42.533Z,351.35
2022-09-14T13:27:27.593Z,347.80
2022-09-14T13:30:04.186Z,329.88
2022-09-14T13:32:34.086Z,353.00
2022-09-14T13:35:04.723Z,337.02
2022-09-14T13:37:31.962Z,339.13
2022-09-14T13:39:59.745Z,337.83
2022-09-14T13:42:27.318Z,338.23
2022-09-14T13:44:55.573Z,349.00
2022-09-14T13:47:24.317Z,348.65
2022-09-14T13:49:54.074Z,334.38
2022-09-14T13:52:31.045Z,347.65
2022-09-14T13:55:18.622Z,347.90
2022-09-14T13:58:19.531Z,341.50
2022-09-14T14:01:00.682Z,350.85
2022-09-14T14:03:30.562Z,340.77
2022-09-14T14:05:58.121Z,345.48
2022-09-14T14:08:35.960Z,331.63
2022-09-14T14:11:06.355Z,311.00
2022-09-14T14:13:34.652Z,334.30
2022-09-14T14:16:19.921Z,324.37
2022-09-14T14:18:55.374Z,344.70
2022-09-14T14:21:22.706Z,335.88
2022-09-14T14:24:14.578Z,340.42
2022-09-14T14:26:48.251Z,342.88
2022-09-14T14:29:16.400Z,324.95
2022-09-14T14:31:43.739Z,330.00
2022-09-14T14:34:24.507Z,343.00
2022-09-14T14:36:51.850Z,349.13
2022-09-14T14:39:23.518Z,349.70
2022-09-14T14:41:51.478Z,347.10
2022-09-14T14:44:25.076Z,338.23
2022-09-14T14:46:52.242Z,339.17
2022-09-14T14:49:20.562Z,340.35
2022-09-14T14:51:48.067Z,342.90
2022-09-14T14:54:17.999Z,332.30
2022-09-14T14:56:49.688Z,339.45
2022-09-14T14:59:16.835Z,335.83
2022-09-14T15:01:45.379Z,335.88
2022-09-14T15:04:12.489Z,344.85
2022-09-14T15:06:39.771Z,338.73
2022-09-14T15:09:14.452Z,331.67
2022-09-14T15:11:42.776Z,344.50
2022-09-14T15:14:13.365Z,354.70
2022-09-14T15:16:40.565Z,358.02
2022-09-14T15:19:08.095Z,358.13
2022-09-14T15:21:35.264Z,346.08
2022-09-14T15:24:02.645Z,366.30
2022-09-14T15:26:29.773Z,363.77
2022-09-14T15:28:56.891Z,358.57
2022-09-14T15:31:24.167Z,359.90
2022-09-14T15:33:51.427Z,375.38
2022-09-14T15:36:38.192Z,359.67
2022-09-14T15:39:05.897Z,352.85
2022-09-14T15:41:33.103Z,346.58
2022-09-14T15:44:01.021Z,346.25
2022-09-14T15:46:28.150Z,337.77
2022-09-14T15:48:55.493Z,357.45
2022-09-14T15:51:22.705Z,359.20
2022-09-14T15:53:52.181Z,363.60
2022-09-14T15:56:19.875Z,367.77
2022-09-14T15:58:48.217Z,367.90
2022-09-14T16:01:17.247Z,353.53
2022-09-14T16:03:44.676Z,353.17
2022-09-14T16:06:15.004Z,379.88
2022-09-14T16:08:42.411Z,347.77
2022-09-14T16:11:09.633Z,362.83
2022-09-14T16:13:37.359Z,368.25
2022-09-14T16:16:09.836Z,367.83
2022-09-14T16:18:37.853Z,372.48
2022-09-14T16:21:10.384Z,392.42
2022-09-14T16:23:39.122Z,375.35
2022-09-14T16:26:13.485Z,397.13
2022-09-14T16:28:42.284Z,391.67
2022-09-14T16:31:14.890Z,379.55
2022-09-14T16:33:43.758Z,384.60
2022-09-14T16:36:12.259Z,393.70
2022-09-14T16:38:39.535Z,395.47
2022-09-14T16:41:07.164Z,393.65
2022-09-14T16:43:35.051Z,417.85
2022-09-14T16:46:02.324Z,415.60
2022-09-14T16:48:29.578Z,422.88
2022-09-14T16:50:57.139Z,418.15
2022-09-14T16:53:25.030Z,426.17
2022-09-14T16:55:52.087Z,413.92
2022-09-14T16:58:19.311Z,440.33
2022-09-14T17:00:46.418Z,411.40
2022-09-14T17:03:13.918Z,447.85
2022-09-14T17:05:41.046Z,448.95
2022-09-14T17:08:08.211Z,459.33
2022-09-14T17:10:35.538Z,394.45
2022-09-14T17:13:02.815Z,420.77
2022-09-14T17:15:30.830Z,420.27
2022-09-14T17:17:57.931Z,415.08
2022-09-14T17:20:25.213Z,429.63
2022-09-14T17:22:52.430Z,413.35
2022-09-14T17:25:19.859Z,427.10
2022-09-14T17:27:47.023Z,434.10
2022-09-14T17:30:14.361Z,369.92
2022-09-14T17:32:41.454Z,422.85
2022-09-14T17:35:09.162Z,417.75
2022-09-14T17:37:36.314Z,424.85
2022-09-14T17:40:03.708Z,486.37
2022-09-14T17:42:30.899Z,532.22
2022-09-14T17:44:58.108Z,531.60
2022-09-14T17:47:26.322Z,550.87
2022-09-14T17:49:53.552Z,536.53
2022-09-14T17:52:20.764Z,550.50
2022-09-14T17:54:47.974Z,562.97
2022-09-14T17:57:15.087Z,574.28
2022-09-14T17:59:42.260Z,545.78
2022-09-14T18:02:09.794Z,559.10
2022-09-14T18:04:37.009Z,561.78
2022-09-14T18:07:04.838Z,558.83
2022-09-14T18:09:32.153Z,557.10
2022-09-14T18:11:59.429Z,529.47
2022-09-14T18:14:26.815Z,575.92
2022-09-14T18:16:53.950Z,556.47
2022-09-14T18:19:21.299Z,526.35
2022-09-14T18:21:52.417Z,549.97
2022-09-14T18:24:20.051Z,531.10
2022-09-14T18:26:48.736Z,533.00
2022-09-14T18:29:20.938Z,531.08
2022-09-14T18:31:48.125Z,563.50
2022-09-14T18:34:15.375Z,553.35
2022-09-14T18:36:42.606Z,498.05
2022-09-14T18:39:10.662Z,566.83
2022-09-14T18:41:37.831Z,552.30
2022-09-14T18:44:04.957Z,560.50
2022-09-14T18:46:32.520Z,543.63
2022-09-14T18:49:00.890Z,544.70
2022-09-14T18:51:29.596Z,532.45
2022-09-14T18:54:03.502Z,513.00
2022-09-14T18:56:33.059Z,565.05
2022-09-14T18:59:00.642Z,525.60
2022-09-14T19:01:28.176Z,535.95
2022-09-14T19:03:55.987Z,517.60
2022-09-14T19:06:23.770Z,502.27
2022-09-14T19:08:51.105Z,529.83
2022-09-14T19:11:19.998Z,530.50
2022-09-14T19:13:47.605Z,533.43
2022-09-14T19:16:17.612Z,537.03
2022-09-14T19:18:45.743Z,497.05
2022-09-14T19:21:21.642Z,542.37
2022-09-14T19:23:56.314Z,522.90
2022-09-14T19:26:23.462Z,533.88
2022-09-14T19:28:50.642Z,545.17
2022-09-14T19:31:21.939Z,523.67
2022-09-14T19:33:49.252Z,551.88
2022-09-14T19:36:19.670Z,556.70
2022-09-14T19:38:50.102Z,531.03
2022-09-14T19:41:18.040Z,559.17
2022-09-14T19:43:45.228Z,579.60
2022-09-14T19:46:15.146Z,593.53
2022-09-14T19:48:42.889Z,590.22
2022-09-14T19:51:11.741Z,574.60
2022-09-14T19:53:38.996Z,604.03
2022-09-14T19:56:08.396Z,571.42
2022-09-14T19:58:36.647Z,618.40
2022-09-14T20:01:04.794Z,592.15
2022-09-14T20:03:32.459Z,462.60
2022-09-14T20:06:22.606Z,477.90
2022-09-14T20:08:54.498Z,440.73
2022-09-14T20:11:23.456Z,462.55
2022-09-14T20:13:51.150Z,474.73
2022-09-14T20:16:37.638Z,461.10
2022-09-14T20:19:06.972Z,467.67
2022-09-14T20:21:38.482Z,463.45
2022-09-14T20:24:22.560Z,512.22
2022-09-14T20:26:50.920Z,578.97
2022-09-14T20:29:19.126Z,576.38
2022-09-14T20:31:46.393Z,568.72
2022-09-14T20:34:15.546Z,616.50
2022-09-14T20:36:42.857Z,607.90
2022-09-14T20:39:10.059Z,638.30
2022-09-14T20:41:37.330Z,676.90
2022-09-14T20:44:04.731Z,648.70
2022-09-14T20:46:35.543Z,621.78
2022-09-14T20:49:04.092Z,631.97
2022-09-14T20:51:31.475Z,609.05
2022-09-14T20:53:58.758Z,633.78
2022-09-14T20:56:32.024Z,619.90
2022-09-14T20:59:01.092Z,597.33
2022-09-14T21:01:30.401Z,591.42
2022-09-14T21:04:03.303Z,596.33
2022-09-14T21:06:30.583Z,588.15
2022-09-14T21:08:59.897Z,599.20
2022-09-14T21:11:27.652Z,570.80
2022-09-14T21:13:56.755Z,584.47
2022-09-14T21:16:28.938Z,547.80
2022-09-14T21:18:58.765Z,564.30
2022-09-14T21:21:26.832Z,574.15
2022-09-14T21:23:55.732Z,558.28
2022-09-14T21:26:23.160Z,534.78
2022-09-14T21:28:55.823Z,540.13
2022-09-14T21:31:23.870Z,532.43
2022-09-14T21:33:52.159Z,511.23
2022-09-14T21:36:19.373Z,530.28
2022-09-14T21:38:57.214Z,525.03
2022-09-14T21:41:26.120Z,489.45
2022-09-14T21:43:53.694Z,517.50
2022-09-14T21:46:21.243Z,536.67
2022-09-14T21:48:48.494Z,514.72
2022-09-14T21:51:31.266Z,510.47
2022-09-14T21:54:00.075Z,525.83
2022-09-14T21:56:29.434Z,536.47
2022-09-14T21:58:59.686Z,534.20
2022-09-14T22:01:27.803Z,536.85
2022-09-14T22:03:55.495Z,523.13
2022-09-14T22:06:24.562Z,511.95
2022-09-14T22:08:52.366Z,499.37
2022-09-14T22:11:27.298Z,526.78
2022-09-14T22:13:55.331Z,548.17
2022-09-14T22:16:23.612Z,532.97
2022-09-14T22:18:52.807Z,532.72
2022-09-14T22:21:21.345Z,494.52
2022-09-14T22:23:53.920Z,532.08
2022-09-14T22:26:21.392Z,539.20
2022-09-14T22:28:49.631Z,474.02
2022-09-14T22:31:18.091Z,517.93
2022-09-14T22:33:45.286Z,508.98
2022-09-14T22:36:12.706Z,499.67
2022-09-14T22:38:40.974Z,493.08
2022-09-14T22:41:11.377Z,481.33
2022-09-14T22:43:39.122Z,476.30
2022-09-14T22:46:06.722Z,464.23
2022-09-14T22:48:34.184Z,455.00
2022-09-14T22:51:01.622Z,452.23
2022-09-14T22:53:29.480Z,472.83
2022-09-14T22:55:56.674Z,469.92
2022-09-14T22:58:26.110Z,477.75
2022-09-14T23:00:53.635Z,484.70
2022-09-14T23:03:20.938Z,468.38
2022-09-14T23:05:55.523Z,404.33
2022-09-14T23:08:23.292Z,408.23
2022-09-14T23:10:50.443Z,446.23
2022-09-14T23:13:17.677Z,452.80
2022-09-14T23:15:45.065Z,470.17
2022-09-14T23:18:12.683Z,469.45
2022-09-14T23:20:42.355Z,449.88
2022-09-14T23:23:10.560Z,471.13
2022-09-14T23:25:38.618Z,449.52
2022-09-14T23:28:06.793Z,453.75
2022-09-14T23:30:35.041Z,427.80
2022-09-14T23:33:02.423Z,462.55
2022-09-14T23:35:29.871Z,448.10
2022-09-14T23:37:57.367Z,435.20
2022-09-14T23:40:24.776Z,465.35
2022-09-14T23:42:51.926Z,468.42
2022-09-14T23:45:19.184Z,474.75
2022-09-14T23:47:46.463Z,487.87
2022-09-14T23:50:13.593Z,458.45
2022-09-14T23:52:40.722Z,452.02
2022-09-14T23:55:08.299Z,445.33
2022-09-14T23:57:36.478Z,457.38
